Weather at Pong Am Dong North R802 (탁구암동 노스 R802) (G-802) Airport

Public forecast

Using degrees Celsius for public forecast. Weather courtesy of forecast.io.

Closest aviation weather report (METAR) to Pong Am Dong North R802 (탁구암동 노스 R802) (G-802) Airport

Closest report is Gimhae International Airport, 16.0 nm (29.7 km) ESE. Retrieved 2020/10/23 21:00 UTC (9 minutes ago):

RKPK 232100Z 31006KT CAVOK 06/00 Q1016

Closest aviation forecast (TAF) to Pong Am Dong North R802 (탁구암동 노스 R802) (G-802) Airport

Closest forecast is Gimhae International Airport, 16.0 nm (29.7 km) ESE. Retrieved 2020/10/23 18:00 UTC (3 hours ago):

TAF RKPK 231700Z 2318/2424 33008KT 9999 SCT030 TN08/2321Z TX19/2406Z BECMG 2323/2324 33012KT BECMG 2409/2410 33008KT